createdAt,value
2022-11-03T00:00:00.443Z,1012.18
2022-11-03T00:01:00.444Z,1012.16
2022-11-03T00:02:00.621Z,1012.12
2022-11-03T00:03:00.569Z,1012.15
2022-11-03T00:04:00.433Z,1012.11
2022-11-03T00:05:00.436Z,1012.07
2022-11-03T00:06:00.430Z,1012.13
2022-11-03T00:07:00.428Z,1012.06
2022-11-03T00:08:00.429Z,1012.12
2022-11-03T00:09:00.421Z,1012.11
2022-11-03T00:10:00.419Z,1012.10
2022-11-03T00:11:00.428Z,1012.08
2022-11-03T00:12:00.415Z,1012.06
2022-11-03T00:13:00.416Z,1012.05
2022-11-03T00:14:00.408Z,1012.09
2022-11-03T00:15:00.407Z,1012.03
2022-11-03T00:16:00.409Z,1012.02
2022-11-03T00:17:00.408Z,1011.98
2022-11-03T00:18:00.418Z,1012.02
2022-11-03T00:19:00.396Z,1012.05
2022-11-03T00:20:00.397Z,1012.02
2022-11-03T00:21:00.399Z,1011.95
2022-11-03T00:22:00.388Z,1011.92
2022-11-03T00:23:00.384Z,1011.95
2022-11-03T00:24:00.384Z,1011.97
2022-11-03T00:25:00.388Z,1011.96
2022-11-03T00:26:00.377Z,1011.96
2022-11-03T00:27:00.388Z,1011.95
2022-11-03T00:28:00.451Z,1011.92
2022-11-03T00:29:00.373Z,1011.91
2022-11-03T00:30:00.387Z,1011.95
2022-11-03T00:31:00.366Z,1011.94
2022-11-03T00:32:00.366Z,1011.92
2022-11-03T00:33:00.363Z,1011.90
2022-11-03T00:34:00.380Z,1011.88
2022-11-03T00:35:00.355Z,1011.90
2022-11-03T00:36:00.353Z,1011.87
2022-11-03T00:37:00.363Z,1011.84
2022-11-03T00:38:03.555Z,1011.83
2022-11-03T00:39:00.364Z,1011.82
2022-11-03T00:40:00.365Z,1011.84
2022-11-03T00:41:00.341Z,1011.80
2022-11-03T00:42:00.343Z,1011.79
2022-11-03T00:43:00.338Z,1011.70
2022-11-03T00:44:00.336Z,1011.74
2022-11-03T00:45:00.335Z,1011.72
2022-11-03T00:46:00.339Z,1011.70
2022-11-03T00:47:00.336Z,1011.70
2022-11-03T00:48:00.337Z,1011.75
2022-11-03T00:49:00.323Z,1011.70
2022-11-03T00:50:00.341Z,1011.70
2022-11-03T00:51:00.315Z,1011.70
2022-11-03T00:52:00.315Z,1011.64
2022-11-03T00:53:00.319Z,1011.70
2022-11-03T00:54:00.316Z,1011.67
2022-11-03T00:55:00.308Z,1011.70
2022-11-03T00:56:00.315Z,1011.70
2022-11-03T00:57:00.312Z,1011.70
2022-11-03T00:58:00.308Z,1011.65
2022-11-03T00:59:00.296Z,1011.67
2022-11-03T01:00:00.302Z,1011.70
2022-11-03T01:01:00.353Z,1011.69
2022-11-03T01:02:00.404Z,1011.68
2022-11-03T01:03:00.290Z,1011.68
2022-11-03T01:04:00.286Z,1011.68
2022-11-03T01:05:00.301Z,1011.66
2022-11-03T01:06:00.298Z,1011.73
2022-11-03T01:07:00.278Z,1011.70
2022-11-03T01:09:00.271Z,1011.70
2022-11-03T01:10:00.271Z,1011.69
2022-11-03T01:11:00.266Z,1011.66
2022-11-03T01:12:00.269Z,1011.63
2022-11-03T01:13:00.267Z,1011.64
2022-11-03T01:14:00.263Z,1011.62
2022-11-03T01:15:00.261Z,1011.58
2022-11-03T01:16:00.261Z,1011.57
2022-11-03T01:17:00.400Z,1011.58
2022-11-03T01:18:00.251Z,1011.59
2022-11-03T01:19:00.250Z,1011.61
2022-11-03T01:20:00.244Z,1011.56
2022-11-03T01:21:00.248Z,1011.57
2022-11-03T01:22:00.315Z,1011.54
2022-11-03T01:23:00.286Z,1011.54
2022-11-03T01:24:00.288Z,1011.55
2022-11-03T01:25:00.287Z,1011.50
2022-11-03T01:26:00.240Z,1011.50
2022-11-03T01:27:00.227Z,1011.48
2022-11-03T01:28:00.348Z,1011.47
2022-11-03T01:29:00.222Z,1011.44
2022-11-03T01:30:00.220Z,1011.46
2022-11-03T01:31:00.218Z,1011.43
2022-11-03T01:32:00.214Z,1011.41
2022-11-03T01:33:00.211Z,1011.37
2022-11-03T01:34:00.211Z,1011.43
2022-11-03T01:35:00.204Z,1011.42
2022-11-03T01:36:00.206Z,1011.40
2022-11-03T01:37:00.207Z,1011.37
2022-11-03T01:38:00.227Z,1011.42
2022-11-03T01:39:00.196Z,1011.35
2022-11-03T01:40:00.193Z,1011.36
2022-11-03T01:41:00.192Z,1011.37
2022-11-03T01:42:00.192Z,1011.33
2022-11-03T01:43:00.189Z,1011.31
2022-11-03T01:44:00.186Z,1011.22
2022-11-03T01:45:00.190Z,1011.22
2022-11-03T01:46:00.181Z,1011.19
2022-11-03T01:47:00.175Z,1011.21
2022-11-03T01:48:00.338Z,1011.20
2022-11-03T01:49:00.172Z,1011.19
2022-11-03T01:50:00.170Z,1011.20
2022-11-03T01:51:00.168Z,1011.14
2022-11-03T01:52:00.161Z,1011.13
2022-11-03T01:53:00.159Z,1011.15
2022-11-03T01:54:00.181Z,1011.11
2022-11-03T01:55:00.153Z,1011.11
2022-11-03T01:56:00.153Z,1011.10
2022-11-03T01:57:00.148Z,1011.03
2022-11-03T01:58:00.153Z,1011.05
2022-11-03T01:59:00.145Z,1011.00
2022-11-03T02:00:00.151Z,1011.00
2022-11-03T02:01:00.207Z,1011.00
2022-11-03T02:02:00.390Z,1010.98
2022-11-03T02:03:00.134Z,1011.02
2022-11-03T02:04:00.133Z,1010.94
2022-11-03T02:05:00.140Z,1010.93
2022-11-03T02:06:00.128Z,1010.93
2022-11-03T02:07:00.124Z,1010.90
2022-11-03T02:08:00.223Z,1010.93
2022-11-03T02:09:00.120Z,1010.89
2022-11-03T02:10:00.248Z,1010.82
2022-11-03T02:11:00.112Z,1010.86
2022-11-03T02:12:00.113Z,1010.79
2022-11-03T02:13:00.113Z,1010.78
2022-11-03T02:14:00.117Z,1010.79
2022-11-03T02:15:00.112Z,1010.78
2022-11-03T02:16:00.101Z,1010.78
2022-11-03T02:17:00.106Z,1010.78
2022-11-03T02:18:00.101Z,1010.81
2022-11-03T02:19:00.101Z,1010.78
2022-11-03T02:20:00.138Z,1010.75
2022-11-03T02:21:00.092Z,1010.73
2022-11-03T02:22:00.096Z,1010.77
2022-11-03T02:23:00.097Z,1010.76
2022-11-03T02:24:00.092Z,1010.75
2022-11-03T02:25:00.094Z,1010.68
2022-11-03T02:26:00.095Z,1010.72
2022-11-03T02:27:00.080Z,1010.69
2022-11-03T02:28:00.083Z,1010.68
2022-11-03T02:29:00.118Z,1010.69
2022-11-03T02:30:00.081Z,1010.61
2022-11-03T02:31:00.067Z,1010.63
2022-11-03T02:32:00.070Z,1010.60
2022-11-03T02:33:00.061Z,1010.61
2022-11-03T02:34:00.059Z,1010.58
2022-11-03T02:35:00.052Z,1010.54
2022-11-03T02:36:00.066Z,1010.50
2022-11-03T02:37:00.052Z,1010.45
2022-11-03T02:38:00.047Z,1010.42
2022-11-03T02:39:00.044Z,1010.44
2022-11-03T02:40:00.040Z,1010.41
2022-11-03T02:41:00.040Z,1010.46
2022-11-03T02:42:00.054Z,1010.37
2022-11-03T02:43:00.033Z,1010.39
2022-11-03T02:44:00.030Z,1010.38
2022-11-03T02:45:00.029Z,1010.32
2022-11-03T02:46:00.029Z,1010.34
2022-11-03T02:47:00.023Z,1010.27
2022-11-03T02:48:00.028Z,1010.25
2022-11-03T02:49:00.018Z,1010.30
2022-11-03T02:50:00.025Z,1010.21
2022-11-03T02:51:00.018Z,1010.24
2022-11-03T02:52:00.012Z,1010.20
2022-11-03T02:53:00.011Z,1010.14
2022-11-03T02:54:00.005Z,1010.14
2022-11-03T02:55:00.000Z,1010.13
2022-11-03T02:55:59.999Z,1010.08
2022-11-03T02:56:59.998Z,1010.10
2022-11-03T02:58:00.015Z,1010.05
2022-11-03T02:58:59.994Z,1010.03
2022-11-03T02:59:59.990Z,1010.06
2022-11-03T03:01:00.129Z,1010.09
2022-11-03T03:02:00.149Z,1010.08
2022-11-03T03:02:59.982Z,1010.08
2022-11-03T03:03:59.982Z,1010.03
2022-11-03T03:04:59.980Z,1009.99
2022-11-03T03:05:59.972Z,1010.01
2022-11-03T03:06:59.971Z,1009.99
2022-11-03T03:07:59.967Z,1009.98
2022-11-03T03:08:59.969Z,1010.03
2022-11-03T03:09:59.968Z,1009.99
2022-11-03T03:10:59.961Z,1010.03
2022-11-03T03:11:59.958Z,1009.97
2022-11-03T03:12:59.954Z,1009.91
2022-11-03T03:13:59.973Z,1009.89
2022-11-03T03:14:59.954Z,1009.88
2022-11-03T03:15:59.947Z,1009.92
2022-11-03T03:16:59.948Z,1009.95
2022-11-03T03:17:59.953Z,1009.90
2022-11-03T03:18:59.940Z,1009.89
2022-11-03T03:19:59.937Z,1009.89
2022-11-03T03:20:59.935Z,1009.92
2022-11-03T03:21:59.936Z,1009.87
2022-11-03T03:22:59.929Z,1009.89
2022-11-03T03:23:59.929Z,1009.83
2022-11-03T03:24:59.926Z,1009.83
2022-11-03T03:25:59.925Z,1009.82
2022-11-03T03:26:59.920Z,1009.82
2022-11-03T03:27:59.925Z,1009.75
2022-11-03T03:28:59.919Z,1009.77
2022-11-03T03:29:59.932Z,1009.79
2022-11-03T03:30:59.912Z,1009.77
2022-11-03T03:31:59.911Z,1009.74
2022-11-03T03:32:59.911Z,1009.74
2022-11-03T03:34:04.873Z,1009.74
2022-11-03T03:34:59.899Z,1009.70
2022-11-03T03:35:59.894Z,1009.70
2022-11-03T03:36:59.891Z,1009.73
2022-11-03T03:37:59.889Z,1009.72
2022-11-03T03:38:59.889Z,1009.68
2022-11-03T03:39:59.890Z,1009.68
2022-11-03T03:40:59.893Z,1009.64
2022-11-03T03:41:59.880Z,1009.67
2022-11-03T03:42:59.881Z,1009.70
2022-11-03T03:43:59.874Z,1009.66
2022-11-03T03:44:59.876Z,1009.68
2022-11-03T03:45:59.891Z,1009.65
2022-11-03T03:46:59.871Z,1009.64
2022-11-03T03:47:59.866Z,1009.65
2022-11-03T03:48:59.863Z,1009.64
2022-11-03T03:49:59.873Z,1009.61
2022-11-03T03:50:59.856Z,1009.61
2022-11-03T03:51:59.854Z,1009.64
2022-11-03T03:52:59.854Z,1009.62
2022-11-03T03:53:59.850Z,1009.60
2022-11-03T03:54:59.849Z,1009.55
2022-11-03T03:55:59.843Z,1009.53
2022-11-03T03:56:59.844Z,1009.52
2022-11-03T03:58:00.567Z,1009.55
2022-11-03T03:58:59.864Z,1009.56
2022-11-03T03:59:59.846Z,1009.51
2022-11-03T04:00:59.872Z,1009.52
2022-11-03T04:02:00.045Z,1009.46
2022-11-03T04:02:59.827Z,1009.47
2022-11-03T04:03:59.826Z,1009.43
2022-11-03T04:04:59.826Z,1009.47
2022-11-03T04:05:59.820Z,1009.40
2022-11-03T04:06:59.821Z,1009.40
2022-11-03T04:07:59.815Z,1009.44
2022-11-03T04:08:59.964Z,1009.41
2022-11-03T04:09:59.806Z,1009.42
2022-11-03T04:10:59.804Z,1009.37
2022-11-03T04:11:59.804Z,1009.34
2022-11-03T04:12:59.800Z,1009.36
2022-11-03T04:13:59.799Z,1009.29
2022-11-03T04:14:59.795Z,1009.32
2022-11-03T04:15:59.792Z,1009.32
2022-11-03T04:16:59.792Z,1009.30
2022-11-03T04:17:59.811Z,1009.30
2022-11-03T04:18:59.795Z,1009.23
2022-11-03T04:19:59.787Z,1009.25
2022-11-03T04:20:59.779Z,1009.28
2022-11-03T04:21:59.775Z,1009.28
2022-11-03T04:22:59.775Z,1009.28
2022-11-03T04:23:59.773Z,1009.26
2022-11-03T04:24:59.772Z,1009.24
2022-11-03T04:25:59.868Z,1009.22
2022-11-03T04:26:59.767Z,1009.20
2022-11-03T04:27:59.763Z,1009.24
2022-11-03T04:28:59.758Z,1009.14
2022-11-03T04:29:59.756Z,1009.20
2022-11-03T04:30:59.811Z,1009.20
2022-11-03T04:31:59.749Z,1009.21
2022-11-03T04:32:59.749Z,1009.24
2022-11-03T04:33:59.765Z,1009.19
2022-11-03T04:34:59.745Z,1009.18
2022-11-03T04:35:59.741Z,1009.14
2022-11-03T04:36:59.738Z,1009.14
2022-11-03T04:37:59.739Z,1009.10
2022-11-03T04:38:59.730Z,1009.11
2022-11-03T04:39:59.730Z,1009.14
2022-11-03T04:40:59.733Z,1009.08
2022-11-03T04:41:59.726Z,1009.11
2022-11-03T04:42:59.723Z,1009.05
2022-11-03T04:43:59.722Z,1009.00
2022-11-03T04:44:59.720Z,1009.06
2022-11-03T04:45:59.715Z,1009.02
2022-11-03T04:46:59.711Z,1009.06
2022-11-03T04:47:59.709Z,1009.05
2022-11-03T04:48:59.707Z,1009.05
2022-11-03T04:49:59.723Z,1009.01
2022-11-03T04:50:59.706Z,1008.96
2022-11-03T04:51:59.703Z,1008.95
2022-11-03T04:52:59.696Z,1009.02
2022-11-03T04:53:59.693Z,1009.00
2022-11-03T04:54:59.694Z,1008.99
2022-11-03T04:56:05.958Z,1008.95
2022-11-03T04:56:59.693Z,1008.95
2022-11-03T04:57:59.684Z,1009.00
2022-11-03T04:58:59.679Z,1009.00
2022-11-03T04:59:59.678Z,1008.96
2022-11-03T05:00:59.739Z,1008.98
2022-11-03T05:01:59.806Z,1008.89
2022-11-03T05:02:59.670Z,1008.94
2022-11-03T05:03:59.670Z,1008.95
2022-11-03T05:04:59.663Z,1008.91
2022-11-03T05:05:59.682Z,1008.92
2022-11-03T05:06:59.661Z,1008.90
2022-11-03T05:07:59.656Z,1008.90
2022-11-03T05:08:59.657Z,1008.84
2022-11-03T05:09:59.650Z,1008.84
2022-11-03T05:10:59.653Z,1008.80
2022-11-03T05:11:59.652Z,1008.80
2022-11-03T05:12:59.647Z,1008.80
2022-11-03T05:13:59.645Z,1008.78
2022-11-03T05:14:59.640Z,1008.77
2022-11-03T05:15:59.647Z,1008.70
2022-11-03T05:18:43.380Z,1008.69
2022-11-03T05:19:43.379Z,1008.66
2022-11-03T05:20:43.382Z,1008.59
2022-11-03T05:21:43.392Z,1008.58
2022-11-03T05:22:43.368Z,1008.53
2022-11-03T05:23:43.367Z,1008.54
2022-11-03T05:24:43.367Z,1008.57
2022-11-03T05:25:43.367Z,1008.53
2022-11-03T05:26:43.365Z,1008.51
2022-11-03T05:27:43.359Z,1008.50
2022-11-03T05:28:43.355Z,1008.46
2022-11-03T05:29:43.359Z,1008.47
2022-11-03T05:30:43.350Z,1008.39
2022-11-03T05:31:43.351Z,1008.43
2022-11-03T05:32:43.342Z,1008.43
2022-11-03T05:33:43.338Z,1008.45
2022-11-03T05:34:43.341Z,1008.39
2022-11-03T05:35:43.334Z,1008.38
2022-11-03T05:36:43.347Z,1008.33
2022-11-03T05:37:43.350Z,1008.32
2022-11-03T05:38:43.350Z,1008.32
2022-11-03T05:39:43.340Z,1008.33
2022-11-03T05:40:43.340Z,1008.29
2022-11-03T05:41:43.319Z,1008.28
2022-11-03T05:42:43.338Z,1008.24
2022-11-03T05:43:43.313Z,1008.23
2022-11-03T05:44:43.311Z,1008.23
2022-11-03T05:45:43.310Z,1008.22
2022-11-03T05:46:43.305Z,1008.29
2022-11-03T05:47:43.305Z,1008.31
2022-11-03T05:48:43.304Z,1008.25
2022-11-03T05:49:43.297Z,1008.24
2022-11-03T05:50:43.298Z,1008.23
2022-11-03T05:51:43.293Z,1008.23
2022-11-03T05:52:43.291Z,1008.20
2022-11-03T05:53:43.380Z,1008.20
2022-11-03T05:54:43.285Z,1008.25
2022-11-03T05:55:43.282Z,1008.25
2022-11-03T05:56:43.278Z,1008.27
2022-11-03T05:57:43.290Z,1008.17
2022-11-03T05:58:43.279Z,1008.22
2022-11-03T05:59:43.271Z,1008.18
2022-11-03T06:00:48.404Z,1008.08
2022-11-03T06:01:43.396Z,1008.05
2022-11-03T06:02:43.358Z,1008.03
2022-11-03T06:03:43.262Z,1008.02
2022-11-03T06:04:43.261Z,1007.97
2022-11-03T06:05:43.256Z,1007.98
2022-11-03T06:06:43.253Z,1008.00
2022-11-03T06:07:43.251Z,1008.02
2022-11-03T06:08:45.961Z,1008.05
2022-11-03T06:09:43.268Z,1008.09
2022-11-03T06:10:43.246Z,1008.02
2022-11-03T06:11:43.242Z,1008.04
2022-11-03T06:12:43.257Z,1008.05
2022-11-03T06:13:43.237Z,1008.02
2022-11-03T06:14:43.234Z,1007.96
2022-11-03T06:15:43.230Z,1007.94
2022-11-03T06:16:43.228Z,1007.89
2022-11-03T06:17:43.222Z,1007.89
2022-11-03T06:18:43.221Z,1007.76
2022-11-03T06:19:43.218Z,1007.91
2022-11-03T06:20:43.216Z,1007.87
2022-11-03T06:21:44.658Z,1007.95
2022-11-03T06:22:43.221Z,1007.90
2022-11-03T06:23:43.208Z,1007.87
2022-11-03T06:24:43.205Z,1007.89
2022-11-03T06:25:43.220Z,1007.86
2022-11-03T06:26:43.199Z,1007.85
2022-11-03T06:27:43.198Z,1007.83
2022-11-03T06:28:43.196Z,1007.78
2022-11-03T06:29:43.207Z,1007.85
2022-11-03T06:31:43.197Z,1007.77
2022-11-03T06:32:43.209Z,1007.78
2022-11-03T06:33:43.182Z,1007.82
2022-11-03T06:34:43.180Z,1007.81
2022-11-03T06:35:43.204Z,1007.79
2022-11-03T06:36:43.184Z,1007.77
2022-11-03T06:37:43.175Z,1007.75
2022-11-03T06:38:43.169Z,1007.68
2022-11-03T06:39:43.166Z,1007.64
2022-11-03T06:40:43.167Z,1007.65
2022-11-03T06:41:43.178Z,1007.62
2022-11-03T06:42:43.162Z,1007.69
2022-11-03T06:43:43.154Z,1007.66
2022-11-03T06:44:43.153Z,1007.67
2022-11-03T06:45:43.157Z,1007.67
2022-11-03T06:46:43.150Z,1007.68
2022-11-03T06:47:43.153Z,1007.68
2022-11-03T06:48:43.142Z,1007.62
2022-11-03T06:49:43.141Z,1007.62
2022-11-03T06:50:44.974Z,1007.55
2022-11-03T06:51:43.134Z,1007.53
2022-11-03T06:52:43.203Z,1007.55
2022-11-03T06:53:43.131Z,1007.50
2022-11-03T06:54:43.131Z,1007.50
2022-11-03T06:55:43.128Z,1007.48
2022-11-03T06:56:43.123Z,1007.45
2022-11-03T06:57:43.142Z,1007.44
2022-11-03T06:58:43.116Z,1007.42
2022-11-03T06:59:43.116Z,1007.38
2022-11-03T07:00:48.902Z,1007.37
2022-11-03T07:01:43.271Z,1007.34
2022-11-03T07:02:43.144Z,1007.32
2022-11-03T07:03:43.101Z,1007.28
2022-11-03T07:04:43.104Z,1007.30
2022-11-03T07:05:43.097Z,1007.29
2022-11-03T07:06:43.101Z,1007.30
2022-11-03T07:07:43.092Z,1007.32
2022-11-03T07:08:43.091Z,1007.32
2022-11-03T07:09:43.089Z,1007.34
2022-11-03T07:10:43.087Z,1007.30
2022-11-03T07:11:43.087Z,1007.33
2022-11-03T07:12:43.094Z,1007.32
2022-11-03T07:13:43.112Z,1007.32
2022-11-03T07:14:43.078Z,1007.26
2022-11-03T07:15:43.074Z,1007.24
2022-11-03T07:16:43.075Z,1007.23
2022-11-03T07:17:43.068Z,1007.27
2022-11-03T07:18:43.078Z,1007.20
2022-11-03T07:19:43.065Z,1007.22
2022-11-03T07:20:43.064Z,1007.11
2022-11-03T07:21:43.057Z,1007.16
2022-11-03T07:22:43.056Z,1007.18
2022-11-03T07:23:46.256Z,1007.14
2022-11-03T07:24:43.056Z,1007.17
2022-11-03T07:25:43.048Z,1007.21
2022-11-03T07:26:43.051Z,1007.25
2022-11-03T07:27:43.044Z,1007.29
2022-11-03T07:28:43.044Z,1007.32
2022-11-03T07:29:43.064Z,1007.27
2022-11-03T07:30:43.037Z,1007.22
2022-11-03T07:31:43.033Z,1007.17
2022-11-03T07:32:43.032Z,1007.06
2022-11-03T07:33:43.029Z,1007.08
2022-11-03T07:34:43.027Z,1007.10
2022-11-03T07:36:13.186Z,1007.07
2022-11-03T07:36:43.019Z,1007.04
2022-11-03T07:37:43.016Z,1007.02
2022-11-03T07:38:43.023Z,1006.97
2022-11-03T07:39:43.015Z,1006.98
2022-11-03T07:40:43.014Z,1006.98
2022-11-03T07:41:43.006Z,1006.95
2022-11-03T07:42:43.009Z,1006.92
2022-11-03T07:43:43.004Z,1006.92
2022-11-03T07:44:43.000Z,1006.87
2022-11-03T07:45:43.015Z,1006.88
2022-11-03T07:46:42.998Z,1006.89
2022-11-03T07:47:42.991Z,1006.89
2022-11-03T07:48:42.993Z,1006.85
2022-11-03T07:49:42.988Z,1006.92
2022-11-03T07:50:42.990Z,1006.90
2022-11-03T07:51:42.985Z,1006.92
2022-11-03T07:52:42.979Z,1006.88
2022-11-03T07:53:42.977Z,1006.87
2022-11-03T07:54:42.977Z,1006.81
2022-11-03T07:55:43.020Z,1006.77
2022-11-03T07:56:42.972Z,1006.82
2022-11-03T07:57:42.969Z,1006.78
2022-11-03T07:58:42.972Z,1006.79
2022-11-03T07:59:42.964Z,1006.78
2022-11-03T08:00:42.960Z,1006.70
2022-11-03T08:01:43.190Z,1006.78
2022-11-03T08:02:43.066Z,1006.69
2022-11-03T08:03:42.953Z,1006.65
2022-11-03T08:04:42.951Z,1006.67
2022-11-03T08:05:42.948Z,1006.70
2022-11-03T08:06:42.945Z,1006.70
2022-11-03T08:07:42.950Z,1006.69
2022-11-03T08:08:42.939Z,1006.70
2022-11-03T08:09:42.938Z,1006.70
2022-11-03T08:10:42.936Z,1006.75
2022-11-03T08:11:42.935Z,1006.71
2022-11-03T08:12:42.937Z,1006.68
2022-11-03T08:13:42.928Z,1006.66
2022-11-03T08:14:42.932Z,1006.60
2022-11-03T08:15:42.924Z,1006.60
2022-11-03T08:16:42.931Z,1006.55
2022-11-03T08:17:42.940Z,1006.53
2022-11-03T08:18:42.918Z,1006.52
2022-11-03T08:19:42.916Z,1006.52
2022-11-03T08:20:42.914Z,1006.60
2022-11-03T08:21:42.911Z,1006.56
2022-11-03T08:22:49.836Z,1006.57
2022-11-03T08:23:47.124Z,1006.52
2022-11-03T08:24:42.914Z,1006.48
2022-11-03T08:25:42.900Z,1006.52
2022-11-03T08:26:42.902Z,1006.48
2022-11-03T08:27:42.895Z,1006.48
2022-11-03T08:28:42.900Z,1006.46
2022-11-03T08:29:42.894Z,1006.48
2022-11-03T08:30:42.889Z,1006.47
2022-11-03T08:31:42.886Z,1006.47
2022-11-03T08:32:42.886Z,1006.42
2022-11-03T08:33:42.896Z,1006.43
2022-11-03T08:34:42.885Z,1006.37
2022-11-03T08:35:42.877Z,1006.39
2022-11-03T08:36:42.873Z,1006.32
2022-11-03T08:37:42.875Z,1006.32
2022-11-03T08:38:42.873Z,1006.32
2022-11-03T08:39:42.866Z,1006.37
2022-11-03T08:40:42.864Z,1006.31
2022-11-03T08:41:42.869Z,1006.34
2022-11-03T08:42:42.877Z,1006.35
2022-11-03T08:43:42.858Z,1006.29
2022-11-03T08:44:42.860Z,1006.34
2022-11-03T08:45:42.853Z,1006.27
2022-11-03T08:46:42.851Z,1006.24
2022-11-03T08:47:42.846Z,1006.24
2022-11-03T08:48:42.843Z,1006.24
2022-11-03T08:49:42.874Z,1006.22
2022-11-03T08:50:42.845Z,1006.13
2022-11-03T08:51:44.573Z,1006.06
2022-11-03T08:52:42.841Z,1006.07
2022-11-03T08:53:43.078Z,1006.11
2022-11-03T08:54:42.873Z,1006.09
2022-11-03T08:55:42.830Z,1006.06
2022-11-03T08:56:42.830Z,1006.02
2022-11-03T08:57:42.826Z,1006.14
2022-11-03T08:58:42.824Z,1006.06
2022-11-03T08:59:42.818Z,1006.03
2022-11-03T09:00:42.817Z,1005.99
2022-11-03T09:01:42.905Z,1005.96
2022-11-03T09:02:42.856Z,1005.91
2022-11-03T09:03:42.982Z,1005.91
2022-11-03T09:04:42.809Z,1005.88
2022-11-03T09:05:42.827Z,1005.90
2022-11-03T09:06:42.803Z,1005.88
2022-11-03T09:10:43.045Z,1005.81
2022-11-03T09:11:42.791Z,1005.81
2022-11-03T09:12:42.787Z,1005.78
2022-11-03T09:13:42.787Z,1005.82
2022-11-03T09:14:42.787Z,1005.78
2022-11-03T09:15:42.782Z,1005.79
2022-11-03T09:16:42.781Z,1005.74
2022-11-03T09:17:44.797Z,1005.66
2022-11-03T09:18:42.779Z,1005.72
2022-11-03T09:19:42.774Z,1005.66
2022-11-03T09:20:42.770Z,1005.71
2022-11-03T09:21:42.801Z,1005.69
2022-11-03T09:22:42.771Z,1005.67
2022-11-03T09:23:42.770Z,1005.63
2022-11-03T09:24:42.763Z,1005.61
2022-11-03T09:25:42.762Z,1005.58
2022-11-03T09:26:42.758Z,1005.53
2022-11-03T09:27:42.756Z,1005.49
2022-11-03T09:28:42.758Z,1005.44
2022-11-03T09:30:06.983Z,1005.38
2022-11-03T09:30:42.755Z,1005.35
2022-11-03T09:31:42.745Z,1005.29
2022-11-03T09:32:42.751Z,1005.32
2022-11-03T09:33:42.745Z,1005.28
2022-11-03T09:34:42.770Z,1005.31
2022-11-03T09:35:42.736Z,1005.19
2022-11-03T09:36:42.735Z,1005.16
2022-11-03T09:37:42.748Z,1005.16
2022-11-03T09:38:42.731Z,1005.11
2022-11-03T09:39:42.733Z,1005.13
2022-11-03T09:40:42.809Z,1005.04
2022-11-03T09:41:57.132Z,1005.08
2022-11-03T09:42:42.730Z,1004.98
2022-11-03T09:43:42.727Z,1005.11
2022-11-03T09:44:42.717Z,1005.01
2022-11-03T09:45:42.717Z,1005.01
2022-11-03T09:46:42.713Z,1004.99
2022-11-03T09:47:42.713Z,1005.03
2022-11-03T09:48:42.713Z,1004.94
2022-11-03T09:49:42.706Z,1004.88
2022-11-03T09:50:42.705Z,1004.95
2022-11-03T09:51:42.704Z,1004.99
2022-11-03T09:52:45.112Z,1004.91
2022-11-03T09:53:42.744Z,1004.87
2022-11-03T09:54:42.696Z,1004.73
2022-11-03T09:55:42.694Z,1004.73
2022-11-03T09:56:42.688Z,1004.76
2022-11-03T09:57:42.689Z,1004.67
2022-11-03T09:58:42.685Z,1004.63
2022-11-03T09:59:42.683Z,1004.59
2022-11-03T10:00:42.796Z,1004.54
2022-11-03T10:01:42.865Z,1004.56
2022-11-03T10:02:42.676Z,1004.48
2022-11-03T10:03:42.677Z,1004.53
2022-11-03T10:04:42.671Z,1004.53
2022-11-03T10:05:42.671Z,1004.52
2022-11-03T10:06:42.667Z,1004.46
2022-11-03T10:07:42.721Z,1004.50
2022-11-03T10:08:42.662Z,1004.43
2022-11-03T10:09:42.679Z,1004.34
2022-11-03T10:10:42.664Z,1004.36
2022-11-03T10:11:42.665Z,1004.35
2022-11-03T10:12:42.652Z,1004.31
2022-11-03T10:13:42.654Z,1004.28
2022-11-03T10:14:42.658Z,1004.28
2022-11-03T10:15:42.658Z,1004.32
2022-11-03T10:16:42.649Z,1004.23
2022-11-03T10:17:42.647Z,1004.22
2022-11-03T10:18:42.652Z,1004.24
2022-11-03T10:19:42.641Z,1004.15
2022-11-03T10:20:42.634Z,1004.04
2022-11-03T10:21:42.709Z,1004.06
2022-11-03T10:22:42.644Z,1004.11
2022-11-03T10:23:42.640Z,1004.09
2022-11-03T10:24:42.627Z,1004.09
2022-11-03T10:25:42.647Z,1004.15
2022-11-03T10:26:42.624Z,1004.16
2022-11-03T10:27:42.626Z,1004.21
2022-11-03T10:28:42.620Z,1004.17
2022-11-03T10:29:45.385Z,1004.21
2022-11-03T10:30:58.130Z,1004.26
2022-11-03T10:31:42.615Z,1004.11
2022-11-03T10:32:42.610Z,1004.11
2022-11-03T10:33:42.609Z,1004.12
2022-11-03T10:34:42.605Z,1004.10
2022-11-03T10:35:42.604Z,1004.09
2022-11-03T10:36:45.581Z,1004.10
2022-11-03T10:37:42.603Z,1004.12
2022-11-03T10:38:42.598Z,1004.08
2022-11-03T10:39:42.599Z,1004.02
2022-11-03T10:40:47.767Z,1003.99
2022-11-03T10:41:42.614Z,1003.84
2022-11-03T10:42:42.592Z,1003.82
2022-11-03T10:43:42.595Z,1003.71
2022-11-03T10:44:42.586Z,1003.65
2022-11-03T10:45:42.936Z,1003.63
2022-11-03T10:46:50.520Z,1003.59
2022-11-03T10:47:42.584Z,1003.52
2022-11-03T10:48:42.578Z,1003.53
2022-11-03T10:49:44.003Z,1003.54
2022-11-03T10:50:42.579Z,1003.52
2022-11-03T10:51:42.572Z,1003.48
2022-11-03T10:52:42.570Z,1003.49
2022-11-03T10:53:42.571Z,1003.51
2022-11-03T10:54:42.579Z,1003.47
2022-11-03T10:55:42.565Z,1003.47
2022-11-03T10:56:42.560Z,1003.41
2022-11-03T10:57:42.581Z,1003.37
2022-11-03T10:58:42.562Z,1003.40
2022-11-03T10:59:42.560Z,1003.21
2022-11-03T11:00:42.662Z,1003.27
2022-11-03T11:01:42.742Z,1003.24
2022-11-03T11:02:42.668Z,1003.19
2022-11-03T11:03:42.552Z,1003.22
2022-11-03T11:04:42.643Z,1003.25
2022-11-03T11:05:42.554Z,1003.17
2022-11-03T11:06:42.548Z,1003.17
2022-11-03T11:07:42.575Z,1003.04
2022-11-03T11:08:42.538Z,1003.00
2022-11-03T11:09:42.537Z,1002.90
2022-11-03T11:10:42.533Z,1002.86
2022-11-03T11:11:42.533Z,1002.89
2022-11-03T11:12:42.529Z,1002.92
2022-11-03T11:13:42.569Z,1002.85
2022-11-03T11:14:42.526Z,1002.97
2022-11-03T11:15:42.526Z,1003.02
2022-11-03T11:16:42.521Z,1003.03
2022-11-03T11:17:42.520Z,1003.06
2022-11-03T11:18:42.523Z,1003.06
2022-11-03T11:19:42.524Z,1003.09
2022-11-03T11:20:42.524Z,1003.13
2022-11-03T11:21:42.541Z,1003.17
2022-11-03T11:22:42.510Z,1003.15
2022-11-03T11:23:42.514Z,1003.10
2022-11-03T11:24:42.507Z,1003.15
2022-11-03T11:25:42.506Z,1003.12
2022-11-03T11:26:42.507Z,1003.02
2022-11-03T11:27:42.501Z,1003.04
2022-11-03T11:28:42.499Z,1003.03
2022-11-03T11:29:42.518Z,1003.05
2022-11-03T11:30:42.497Z,1003.06
2022-11-03T11:31:42.501Z,1002.98
2022-11-03T11:32:42.496Z,1002.99
2022-11-03T11:33:42.492Z,1003.05
2022-11-03T11:34:42.487Z,1002.97
2022-11-03T11:35:42.486Z,1002.96
2022-11-03T11:36:42.485Z,1003.02
2022-11-03T11:37:42.485Z,1002.98
2022-11-03T11:38:42.488Z,1003.05
2022-11-03T11:39:42.483Z,1003.09
2022-11-03T11:40:42.475Z,1003.08
2022-11-03T11:41:42.478Z,1003.14
2022-11-03T11:42:42.475Z,1003.16
2022-11-03T11:43:42.474Z,1003.09
2022-11-03T11:44:42.469Z,1003.02
2022-11-03T11:45:42.839Z,1003.09
2022-11-03T11:46:42.476Z,1002.98
2022-11-03T11:47:42.472Z,1002.96
2022-11-03T11:48:42.461Z,1002.96
2022-11-03T11:49:42.461Z,1002.85
2022-11-03T11:50:42.457Z,1002.78
2022-11-03T11:51:42.454Z,1002.81
2022-11-03T11:52:42.453Z,1002.66
2022-11-03T11:53:42.451Z,1002.71
2022-11-03T11:54:42.448Z,1002.61
2022-11-03T11:55:42.446Z,1002.59
2022-11-03T11:56:42.455Z,1002.43
2022-11-03T11:57:42.459Z,1002.27
2022-11-03T11:58:42.671Z,1002.15
2022-11-03T11:59:42.444Z,1002.27
2022-11-03T12:00:42.446Z,1002.32
2022-11-03T12:01:42.514Z,1002.28
2022-11-03T12:02:42.445Z,1002.23
2022-11-03T12:03:42.485Z,1002.23
2022-11-03T12:04:42.439Z,1002.18
2022-11-03T12:05:42.433Z,1002.20
2022-11-03T12:06:42.453Z,1002.12
2022-11-03T12:07:42.431Z,1002.09
2022-11-03T12:08:42.422Z,1002.11
2022-11-03T12:09:42.422Z,1002.07
2022-11-03T12:10:42.417Z,1002.12
2022-11-03T12:11:45.771Z,1002.03